createdAt,value
2023-08-10T03:32:14.409Z,53.69
2023-08-10T03:34:41.940Z,53.15
2023-08-10T03:37:09.171Z,53.47
2023-08-10T03:39:37.140Z,53.41
2023-08-10T03:42:06.408Z,52.81
2023-08-10T03:44:33.810Z,52.43
2023-08-10T03:47:00.837Z,52.30
2023-08-10T03:49:27.906Z,52.64
2023-08-10T03:51:55.804Z,52.46
2023-08-10T03:54:23.116Z,52.44
2023-08-10T03:56:50.109Z,52.81
2023-08-10T03:59:17.602Z,52.63
2023-08-10T04:01:44.680Z,52.01
2023-08-10T04:04:11.754Z,52.43
2023-08-10T04:06:39.016Z,53.64
2023-08-10T04:09:06.335Z,53.89
2023-08-10T04:11:33.601Z,53.59
2023-08-10T04:14:00.731Z,53.65
2023-08-10T04:16:27.795Z,54.89
2023-08-10T04:18:54.906Z,54.84
2023-08-10T04:21:22.382Z,54.09
2023-08-10T04:23:49.442Z,53.76
2023-08-10T04:26:16.553Z,53.08
2023-08-10T04:28:43.994Z,53.14
2023-08-10T04:31:11.127Z,53.35
2023-08-10T04:33:38.553Z,53.59
2023-08-10T04:36:05.911Z,53.68
2023-08-10T04:38:33.478Z,53.71
2023-08-10T04:41:00.592Z,53.52
2023-08-10T04:43:27.585Z,53.36
2023-08-10T04:45:55.025Z,53.51
2023-08-10T04:48:22.121Z,53.32
2023-08-10T04:50:49.179Z,53.28
2023-08-10T04:53:16.215Z,53.79
2023-08-10T04:55:43.312Z,53.56
2023-08-10T04:58:10.431Z,53.06
2023-08-10T05:00:38.348Z,52.90
2023-08-10T05:03:05.689Z,52.76
2023-08-10T05:05:32.837Z,52.31
2023-08-10T05:07:59.881Z,52.25
2023-08-10T05:10:26.998Z,52.14
2023-08-10T05:12:54.212Z,51.96
2023-08-10T05:15:21.285Z,52.28
2023-08-10T05:17:48.417Z,51.98
2023-08-10T05:20:15.819Z,52.49
2023-08-10T05:22:43.719Z,52.54
2023-08-10T05:25:13.400Z,51.67
2023-08-10T05:27:41.761Z,51.57
2023-08-10T05:30:15.366Z,50.83
2023-08-10T05:32:45.314Z,51.12
2023-08-10T05:35:13.490Z,50.92
2023-08-10T05:37:40.573Z,50.83
2023-08-10T05:40:11.165Z,50.88
2023-08-10T05:42:41.843Z,50.73
2023-08-10T05:45:10.041Z,50.43
2023-08-10T05:47:37.307Z,50.64
2023-08-10T05:50:04.946Z,51.37
2023-08-10T05:52:32.072Z,50.97
2023-08-10T05:54:59.139Z,50.93
2023-08-10T05:57:26.192Z,51.06
2023-08-10T05:59:53.706Z,50.59
2023-08-10T06:02:20.918Z,50.53
2023-08-10T06:04:48.511Z,50.13
2023-08-10T06:07:15.665Z,49.69
2023-08-10T06:09:42.818Z,50.38
2023-08-10T06:12:10.165Z,50.15
2023-08-10T06:14:37.940Z,50.71
2023-08-10T06:17:06.197Z,51.87
2023-08-10T06:19:33.318Z,51.74
2023-08-10T06:22:00.540Z,51.33
2023-08-10T06:24:27.901Z,52.35
2023-08-10T06:26:55.017Z,53.86
2023-08-10T06:29:22.459Z,53.54
2023-08-10T06:31:51.104Z,53.79
2023-08-10T06:34:20.290Z,55.63
2023-08-10T06:36:48.004Z,55.80
2023-08-10T06:39:15.291Z,55.57
2023-08-10T06:41:42.475Z,54.32
2023-08-10T06:44:10.264Z,53.25
2023-08-10T06:46:37.502Z,52.04
2023-08-10T06:49:05.254Z,51.64
2023-08-10T06:51:32.529Z,50.38
2023-08-10T06:53:59.744Z,49.44
2023-08-10T06:56:26.817Z,49.35
2023-08-10T07:01:24.012Z,51.52
2023-08-10T07:03:51.117Z,50.77
2023-08-10T07:06:18.893Z,48.58
2023-08-10T07:08:46.615Z,48.21
2023-08-10T07:11:13.714Z,46.60
2023-08-10T07:13:42.399Z,50.66
2023-08-10T07:16:09.411Z,49.42
2023-08-10T07:18:36.472Z,47.63
2023-08-10T07:21:03.947Z,48.00
2023-08-10T07:23:31.628Z,47.90
2023-08-10T07:25:58.703Z,47.11
2023-08-10T07:28:26.680Z,48.15
2023-08-10T07:30:54.291Z,51.18
2023-08-10T07:33:21.575Z,49.88
2023-08-10T07:35:48.697Z,50.75
2023-08-10T07:38:17.453Z,52.34
2023-08-10T07:40:44.766Z,52.44
2023-08-10T07:43:11.872Z,49.42
2023-08-10T07:45:39.006Z,48.25
2023-08-10T07:48:06.494Z,50.74
2023-08-10T07:50:33.639Z,50.80
2023-08-10T07:53:00.782Z,49.46
2023-08-10T07:55:27.878Z,49.29
2023-08-10T07:57:54.897Z,48.15
2023-08-10T08:00:21.999Z,51.63
2023-08-10T08:02:51.326Z,48.84
2023-08-10T08:05:18.931Z,47.69
2023-08-10T08:07:46.455Z,44.67
2023-08-10T08:10:13.582Z,45.38
2023-08-10T08:12:40.753Z,46.21
2023-08-10T08:15:08.092Z,47.10
2023-08-10T08:18:13.001Z,45.47
2023-08-10T08:20:40.013Z,41.40
2023-08-10T08:23:08.112Z,43.45
2023-08-10T08:25:35.331Z,40.95
2023-08-10T08:28:02.891Z,41.14
2023-08-10T08:30:30.637Z,39.24
2023-08-10T08:32:58.466Z,39.22
2023-08-10T08:35:26.286Z,39.25
2023-08-10T08:37:53.572Z,37.05
2023-08-10T08:40:21.030Z,37.21
2023-08-10T08:42:49.172Z,38.74
2023-08-10T08:45:17.306Z,39.25
2023-08-10T08:47:45.606Z,37.03
2023-08-10T08:50:13.068Z,38.29
2023-08-10T08:52:41.025Z,38.54
2023-08-10T08:55:09.089Z,37.71
2023-08-10T08:57:36.210Z,38.32
2023-08-10T09:00:04.044Z,38.92
2023-08-10T09:02:32.141Z,39.42
2023-08-10T09:05:00.752Z,38.24
2023-08-10T09:07:28.782Z,39.27
2023-08-10T09:09:56.238Z,43.69
2023-08-10T09:12:36.110Z,43.30
2023-08-10T09:15:13.767Z,41.72
2023-08-10T09:17:48.156Z,42.80
2023-08-10T09:20:22.507Z,42.31
2023-08-10T09:22:51.379Z,43.43
2023-08-10T09:25:18.429Z,44.53
2023-08-10T09:27:46.283Z,41.27
2023-08-10T09:30:13.319Z,40.94
2023-08-10T09:32:40.802Z,42.25
2023-08-10T09:35:13.031Z,42.64
2023-08-10T09:37:40.102Z,38.63
2023-08-10T09:40:08.584Z,39.09
2023-08-10T09:42:35.892Z,39.06
2023-08-10T09:45:11.302Z,36.30
2023-08-10T09:47:39.704Z,37.53
2023-08-10T09:50:13.306Z,36.43
2023-08-10T09:52:40.842Z,35.10
2023-08-10T09:55:10.370Z,35.20
2023-08-10T09:57:45.251Z,35.33
2023-08-10T10:00:20.481Z,40.41
2023-08-10T10:02:48.143Z,39.20
2023-08-10T10:07:50.403Z,38.23
2023-08-10T10:10:17.487Z,34.86
2023-08-10T10:12:44.555Z,31.55
2023-08-10T10:15:11.597Z,32.39
2023-08-10T10:17:38.696Z,33.27
2023-08-10T10:20:08.612Z,33.03
2023-08-10T10:22:35.653Z,33.04
2023-08-10T10:25:03.646Z,32.50
2023-08-10T10:27:39.609Z,33.04
2023-08-10T10:30:14.089Z,30.85
2023-08-10T10:32:48.386Z,32.38
2023-08-10T10:35:25.726Z,30.79
2023-08-10T10:37:59.847Z,32.49
2023-08-10T10:40:27.344Z,31.85
2023-08-10T10:43:12.804Z,31.33
2023-08-10T10:45:43.240Z,32.52
2023-08-10T10:48:13.549Z,30.67
2023-08-10T10:50:40.780Z,30.92
2023-08-10T10:53:11.437Z,28.73
2023-08-10T10:55:43.135Z,28.93
2023-08-10T10:58:12.329Z,27.53
2023-08-10T11:00:39.765Z,28.68
2023-08-10T11:03:08.101Z,27.93
2023-08-10T11:05:35.215Z,29.40
2023-08-10T11:08:07.089Z,31.47
2023-08-10T11:10:38.578Z,30.06
2023-08-10T11:13:06.582Z,29.21
2023-08-10T11:15:33.927Z,28.56
2023-08-10T11:18:01.179Z,29.75
2023-08-10T11:20:28.207Z,30.88
2023-08-10T11:22:55.388Z,28.67
2023-08-10T11:25:26.502Z,29.81
2023-08-10T11:27:54.772Z,29.56
2023-08-10T11:30:22.933Z,29.16
2023-08-10T11:32:53.542Z,29.77
2023-08-10T11:35:22.451Z,26.38
2023-08-10T11:37:52.870Z,27.83
2023-08-10T11:40:24.025Z,26.37
2023-08-10T11:43:04.828Z,25.17
2023-08-10T11:45:32.211Z,25.73
2023-08-10T11:50:33.315Z,25.14
2023-08-10T11:53:12.908Z,25.29
2023-08-10T11:55:50.365Z,26.21
2023-08-10T11:58:18.347Z,27.50
2023-08-10T12:00:50.796Z,25.46
2023-08-10T12:03:35.640Z,27.39
2023-08-10T12:06:06.641Z,27.00
2023-08-10T12:08:40.463Z,25.68
2023-08-10T12:11:15.701Z,26.33
2023-08-10T12:13:52.796Z,25.68
2023-08-10T12:16:21.077Z,26.35
2023-08-10T12:18:48.854Z,25.56
2023-08-10T12:21:16.176Z,25.41
2023-08-10T12:23:43.941Z,26.15
2023-08-10T12:26:13.189Z,25.79
2023-08-10T12:28:40.501Z,26.37
2023-08-10T12:31:08.241Z,27.10
2023-08-10T12:33:35.638Z,25.96
2023-08-10T12:36:03.669Z,27.46
2023-08-10T12:38:30.766Z,25.10
2023-08-10T12:40:58.420Z,26.44
2023-08-10T12:43:25.545Z,26.42
2023-08-10T12:45:53.242Z,26.01
2023-08-10T12:48:20.386Z,24.97
2023-08-10T12:50:47.451Z,25.15
2023-08-10T12:53:14.472Z,25.36
2023-08-10T12:55:41.566Z,25.83
2023-08-10T12:58:12.678Z,26.67
2023-08-10T13:00:39.850Z,25.82
2023-08-10T13:03:06.888Z,25.29
2023-08-10T13:05:34.044Z,28.33
2023-08-10T13:08:01.176Z,27.10
2023-08-10T13:10:28.261Z,28.14
2023-08-10T13:12:55.463Z,27.82
2023-08-10T13:15:22.539Z,26.80
2023-08-10T13:17:49.679Z,25.59
2023-08-10T13:20:17.702Z,25.78
2023-08-10T13:22:45.633Z,26.16
2023-08-10T13:25:12.795Z,25.58
2023-08-10T13:27:39.834Z,25.83
2023-08-10T13:30:07.523Z,26.23
2023-08-10T13:32:34.582Z,25.30
2023-08-10T13:35:01.803Z,24.40
2023-08-10T13:37:28.876Z,25.01
2023-08-10T13:39:55.935Z,26.93
2023-08-10T13:42:23.080Z,25.13
2023-08-10T13:44:50.124Z,26.19
2023-08-10T13:47:17.222Z,26.00
2023-08-10T13:49:54.955Z,24.95
2023-08-10T13:52:25.661Z,26.77
2023-08-10T13:54:53.018Z,27.63
2023-08-10T13:57:20.542Z,26.35
2023-08-10T13:59:48.094Z,26.47
2023-08-10T14:02:15.710Z,26.02
2023-08-10T14:04:43.384Z,27.20
2023-08-10T14:07:10.434Z,26.66
2023-08-10T14:09:37.512Z,27.93
2023-08-10T14:12:05.306Z,26.34
2023-08-10T14:14:33.622Z,25.60
2023-08-10T14:17:00.714Z,26.18
2023-08-10T14:19:27.770Z,26.69
2023-08-10T14:21:56.166Z,28.05
2023-08-10T14:24:23.364Z,28.03
2023-08-10T14:26:50.429Z,26.90
2023-08-10T14:29:17.779Z,29.47
2023-08-10T14:31:44.872Z,29.31
2023-08-10T14:34:13.485Z,27.77
2023-08-10T14:36:40.596Z,27.76
2023-08-10T14:39:07.772Z,28.21
2023-08-10T14:41:35.120Z,27.31
2023-08-10T14:44:02.261Z,27.12
2023-08-10T14:46:29.390Z,28.33
2023-08-10T14:48:56.679Z,28.55
2023-08-10T14:51:23.765Z,28.35
2023-08-10T14:53:50.830Z,28.28
2023-08-10T14:56:18.003Z,27.00
2023-08-10T14:58:45.403Z,26.25
2023-08-10T15:01:13.999Z,25.77
2023-08-10T15:03:41.101Z,26.32
2023-08-10T15:06:08.675Z,26.83
2023-08-10T15:08:36.260Z,28.38
2023-08-10T15:11:04.985Z,29.41
2023-08-10T15:13:33.113Z,27.55
2023-08-10T15:16:00.267Z,28.01
2023-08-10T15:18:27.345Z,27.24
2023-08-10T15:20:54.490Z,26.86
2023-08-10T15:25:53.803Z,26.18
2023-08-10T15:28:20.902Z,25.97
2023-08-10T15:30:49.680Z,26.25
2023-08-10T15:33:16.843Z,25.51
2023-08-10T15:35:45.901Z,26.15
2023-08-10T15:38:13.224Z,26.43
2023-08-10T15:40:40.518Z,24.61
2023-08-10T15:43:07.666Z,27.67
2023-08-10T15:45:36.087Z,28.29
2023-08-10T15:48:03.289Z,29.21
2023-08-10T15:50:30.391Z,28.98
2023-08-10T15:52:57.464Z,28.22
2023-08-10T15:55:24.580Z,29.01
2023-08-10T15:57:51.643Z,28.31
2023-08-10T16:00:19.815Z,27.37
2023-08-10T16:02:46.912Z,29.95
2023-08-10T16:05:13.987Z,28.21
2023-08-10T16:07:41.187Z,30.60
2023-08-10T16:10:08.693Z,31.31
2023-08-10T16:12:36.126Z,31.09
2023-08-10T16:15:04.301Z,30.11
2023-08-10T16:17:31.423Z,28.01
2023-08-10T16:19:59.037Z,27.59
2023-08-10T16:22:26.444Z,27.81
2023-08-10T16:24:53.659Z,31.03
2023-08-10T16:27:20.799Z,30.98
2023-08-10T16:29:48.530Z,30.85
2023-08-10T16:32:16.795Z,30.09
2023-08-10T16:34:45.385Z,28.87
2023-08-10T16:37:12.699Z,28.99
2023-08-10T16:39:39.794Z,31.02
2023-08-10T16:42:08.712Z,29.57
2023-08-10T16:44:36.067Z,29.90
2023-08-10T16:47:03.148Z,30.11
2023-08-10T16:49:30.190Z,31.01
2023-08-10T16:52:01.339Z,30.88
2023-08-10T16:54:28.486Z,31.14
2023-08-10T16:56:56.633Z,31.66
2023-08-10T16:59:23.977Z,29.70
2023-08-10T17:01:51.123Z,31.27
2023-08-10T17:04:18.196Z,30.35
2023-08-10T17:06:45.281Z,29.59
2023-08-10T17:09:12.458Z,29.23
2023-08-10T17:11:39.498Z,30.31
2023-08-10T17:14:06.547Z,29.90
2023-08-10T17:16:33.659Z,28.95
2023-08-10T17:19:00.717Z,28.74
2023-08-10T17:21:27.812Z,30.65
2023-08-10T17:23:54.911Z,30.63
2023-08-10T17:26:21.930Z,30.11
2023-08-10T17:28:49.687Z,31.15
2023-08-10T17:31:16.811Z,29.28
2023-08-10T17:33:43.951Z,29.96
2023-08-10T17:36:11.045Z,29.70
2023-08-10T17:38:40.915Z,29.64
2023-08-10T17:41:08.156Z,30.76
2023-08-10T17:43:36.273Z,31.43
2023-08-10T17:46:03.367Z,31.60
2023-08-10T17:48:30.421Z,33.10
2023-08-10T17:50:58.641Z,33.62
2023-08-10T17:53:25.708Z,34.07
2023-08-10T17:55:53.844Z,33.34
2023-08-10T17:58:20.942Z,34.55
2023-08-10T18:00:48.094Z,35.11
2023-08-10T18:03:17.935Z,35.78
2023-08-10T18:05:45.671Z,36.05
2023-08-10T18:08:12.898Z,36.96
2023-08-10T18:10:58.535Z,37.79
2023-08-10T18:13:25.601Z,37.78
2023-08-10T18:15:52.966Z,37.20
2023-08-10T18:18:20.317Z,38.02
2023-08-10T18:20:47.416Z,38.51
2023-08-10T18:23:14.764Z,39.96
2023-08-10T18:25:41.884Z,41.09
2023-08-10T18:28:09.411Z,42.27
2023-08-10T18:30:36.563Z,43.59
2023-08-10T18:33:03.932Z,43.72
2023-08-10T18:35:31.790Z,43.37
2023-08-10T18:37:59.132Z,43.90
2023-08-10T18:40:39.144Z,43.57
2023-08-10T18:43:06.285Z,43.23
2023-08-10T18:45:34.294Z,44.67
2023-08-10T18:48:01.398Z,44.71
2023-08-10T18:50:28.777Z,44.70
2023-08-10T18:52:55.877Z,44.92
2023-08-10T18:55:23.213Z,45.03
2023-08-10T18:57:50.328Z,44.33
2023-08-10T19:00:17.586Z,42.84
2023-08-10T19:02:44.758Z,43.86
2023-08-10T19:05:11.959Z,43.48
2023-08-10T19:07:44.388Z,43.22
2023-08-10T19:10:11.910Z,43.57
2023-08-10T19:12:39.924Z,44.09
2023-08-10T19:15:07.646Z,43.48
2023-08-10T19:17:34.935Z,43.68
2023-08-10T19:20:02.350Z,42.54
2023-08-10T19:22:29.966Z,41.58
2023-08-10T19:24:57.053Z,42.21
2023-08-10T19:27:24.086Z,41.85
2023-08-10T19:29:51.194Z,41.95
2023-08-10T19:32:18.288Z,41.55
2023-08-10T19:34:45.455Z,43.08
2023-08-10T19:37:12.554Z,42.78
2023-08-10T19:39:39.641Z,42.84
2023-08-10T19:42:07.032Z,41.99
2023-08-10T19:44:34.358Z,41.96
2023-08-10T19:47:01.503Z,42.47
2023-08-10T19:49:28.605Z,42.26
2023-08-10T19:51:55.736Z,41.36
2023-08-10T19:54:22.803Z,41.96
2023-08-10T19:56:49.994Z,43.05
2023-08-10T19:59:17.052Z,42.87
2023-08-10T20:01:44.887Z,42.70
2023-08-10T20:04:12.087Z,43.23
2023-08-10T20:06:39.235Z,43.50
2023-08-10T20:09:06.431Z,43.10
2023-08-10T20:11:33.607Z,43.78
2023-08-10T20:14:00.730Z,43.65
2023-08-10T20:16:27.857Z,42.29
2023-08-10T20:18:55.438Z,43.80
2023-08-10T20:21:23.780Z,43.62
2023-08-10T20:23:51.017Z,43.52
2023-08-10T20:26:19.716Z,43.70
2023-08-10T20:28:47.395Z,43.39
2023-08-10T20:31:14.578Z,43.40
2023-08-10T20:33:45.762Z,42.52
2023-08-10T20:36:13.088Z,42.40
2023-08-10T20:38:40.241Z,42.66
2023-08-10T20:41:07.338Z,43.11
2023-08-10T20:43:34.668Z,43.79
2023-08-10T20:46:03.004Z,44.04
2023-08-10T20:48:30.177Z,44.33
2023-08-10T20:50:57.222Z,43.72
2023-08-10T20:53:24.253Z,43.34
2023-08-10T20:55:51.412Z,43.96
2023-08-10T20:58:19.038Z,43.60
2023-08-10T21:00:46.120Z,42.73
2023-08-10T21:03:13.289Z,43.80
2023-08-10T21:05:40.449Z,43.53
2023-08-10T21:08:07.492Z,44.42
2023-08-10T21:10:34.887Z,44.62
2023-08-10T21:13:02.317Z,44.61
2023-08-10T21:15:29.502Z,45.22
2023-08-10T21:17:56.556Z,45.55
2023-08-10T21:20:24.447Z,45.29
2023-08-10T21:22:51.612Z,45.15
2023-08-10T21:25:18.740Z,44.67
2023-08-10T21:27:45.784Z,44.44
2023-08-10T21:30:12.868Z,44.64
2023-08-10T21:32:40.360Z,44.51
2023-08-10T21:35:07.772Z,44.42
2023-08-10T21:37:36.565Z,44.58
2023-08-10T21:40:04.704Z,44.83
2023-08-10T21:42:31.782Z,44.56
2023-08-10T21:44:58.777Z,44.91
2023-08-10T21:47:25.928Z,44.83
2023-08-10T21:49:52.978Z,44.74
2023-08-10T21:52:20.273Z,44.70
2023-08-10T21:54:47.443Z,44.15
2023-08-10T21:57:14.678Z,43.97
2023-08-10T21:59:41.798Z,44.29
